»·PEaware :: DAL736 KPDX-KLAX

DAL736 :: KPDX-KLAX

FLIGHT INFORMATION

Flight Status: Arrived
Operator:
Delta Air Lines
More flights by this operator :: More flights under this callsign
Pilot: Rahim A. (25421)
Aircraft: BOEING 777-200
(B772)
More flights by this aircraft type
Origin: KPDX Portland Intl
United States
Destination: KLAX Los Angeles Intl
United States
More flights between these airports :: More routes between these airports
Route: +CASCD2 JOGEN Q7 JAGWA BURGL IRNMN2
File this flight plan on PilotEdge
Remarks: RMK / SIMBRIEF
Altitude:
(Current/Filed)
36,000ft
Speed:
(Current/Filed)
475kts
Departed: 09-Jul-19 11:03 AM
Arrived: 09-Jul-19 12:56 PM
Distance/Time
Traveled:
725nm/1:53
Distance/Time
To Go:
Arrived

Flight Plot

Page will automatically refresh every two minutes.

Flight plan parsing failed; only flown route is shown


Map Options




Map Legend


Flown Route
Filed Route
Departure Airport
Arrival Airport
Navaid (VOR, NDB)
Fix

Horizontal Profiles

Position Reports

Time Latitude Longitude Heading Altitude Ground
Speed
09-Jul-19 10:30 45.591117 -122.596881 58 46ft 0kts
09-Jul-19 10:31 45.591117 -122.596881 58 46ft 0kts
09-Jul-19 10:32 45.591117 -122.596881 58 46ft 0kts
09-Jul-19 10:33 45.591117 -122.596881 58 46ft 0kts
09-Jul-19 10:34 45.591117 -122.596881 58 46ft 0kts
09-Jul-19 10:35 45.591117 -122.596881 58 46ft 0kts
09-Jul-19 10:36 45.591117 -122.596881 58 46ft 0kts
09-Jul-19 10:37 45.591117 -122.596881 58 46ft 0kts
09-Jul-19 10:38 45.591117 -122.596881 58 46ft 0kts
09-Jul-19 10:39 45.591117 -122.596881 58 46ft 0kts
09-Jul-19 10:40 45.591117 -122.596881 58 46ft 0kts
09-Jul-19 10:41 45.591117 -122.596881 58 46ft 0kts
09-Jul-19 10:42 45.591117 -122.596881 58 46ft 0kts
09-Jul-19 10:43 45.591116 -122.596882 58 46ft 0kts
09-Jul-19 10:44 45.591116 -122.596882 58 46ft 0kts
09-Jul-19 10:45 45.591116 -122.596882 58 46ft 0kts
09-Jul-19 10:46 45.590970 -122.597226 59 46ft 2kts
09-Jul-19 10:47 45.590902 -122.598054 108 46ft 2kts
09-Jul-19 10:48 45.591168 -122.598766 118 46ft 0kts
09-Jul-19 10:49 45.591363 -122.599539 98 46ft 2kts
09-Jul-19 10:50 45.591384 -122.599917 89 46ft 0kts
09-Jul-19 10:51 45.591384 -122.599917 89 46ft 0kts
09-Jul-19 10:52 45.591384 -122.599917 89 46ft 0kts
09-Jul-19 10:53 45.591384 -122.599917 89 46ft 0kts
09-Jul-19 10:54 45.591384 -122.599917 89 46ft 0kts
09-Jul-19 10:55 45.591384 -122.599917 89 46ft 0kts
09-Jul-19 10:56 45.591382 -122.601187 269 46ft 11kts
09-Jul-19 10:57 45.591492 -122.607331 290 46ft 18kts
09-Jul-19 10:58 45.594264 -122.614348 299 46ft 22kts
09-Jul-19 10:59 45.595777 -122.620753 217 46ft 2kts
09-Jul-19 11:00 45.595769 -122.620762 217 46ft 0kts
09-Jul-19 11:01 45.594636 -122.620112 121 46ft 6kts
09-Jul-19 11:02 45.590553 -122.609591 118 47ft 131kts
09-Jul-19 11:03 45.578172 -122.548276 97 2824ft 178kts
09-Jul-19 11:04 45.566501 -122.479231 108 6121ft 186kts
09-Jul-19 11:05 45.554253 -122.404960 103 8253ft 246kts
09-Jul-19 11:06 45.520293 -122.306187 147 10759ft 326kts
09-Jul-19 11:07 45.429668 -122.259228 169 14860ft 362kts
09-Jul-19 11:08 45.327702 -122.229452 171 18825ft 387kts
09-Jul-19 11:09 45.219173 -122.197909 172 22330ft 409kts
09-Jul-19 11:10 45.106356 -122.165224 172 23051ft 414kts
09-Jul-19 11:11 44.996990 -122.107244 158 23793ft 434kts
09-Jul-19 11:12 44.887226 -122.031548 158 27008ft 448kts
09-Jul-19 11:13 44.772603 -121.952803 158 29427ft 471kts
09-Jul-19 11:14 44.653073 -121.871003 158 31920ft 488kts
09-Jul-19 11:15 44.531469 -121.788159 159 35114ft 481kts
09-Jul-19 11:16 44.413094 -121.707940 159 35105ft 468kts
09-Jul-19 11:17 44.292554 -121.643448 175 35116ft 459kts
09-Jul-19 11:18 44.166664 -121.613508 175 35110ft 459kts
09-Jul-19 11:19 44.040800 -121.584412 175 35110ft 459kts
09-Jul-19 11:20 43.914972 -121.555491 175 35109ft 459kts
09-Jul-19 11:21 43.788856 -121.526626 175 35116ft 459kts
09-Jul-19 11:22 43.663141 -121.497979 175 35123ft 460kts
09-Jul-19 11:23 43.537088 -121.469368 175 35122ft 461kts
09-Jul-19 11:24 43.410745 -121.440819 175 35122ft 463kts
09-Jul-19 11:25 43.283292 -121.412137 175 35122ft 462kts
09-Jul-19 11:26 43.155993 -121.383634 174 35124ft 463kts
09-Jul-19 11:27 43.029055 -121.355290 174 35138ft 463kts
09-Jul-19 11:28 42.901618 -121.326981 175 35132ft 463kts
09-Jul-19 11:29 42.774485 -121.298848 175 35136ft 463kts
09-Jul-19 11:30 42.647736 -121.270933 175 35139ft 463kts
09-Jul-19 11:31 42.520065 -121.242907 175 35144ft 464kts
09-Jul-19 11:32 42.392351 -121.214998 175 35144ft 464kts
09-Jul-19 11:33 42.265239 -121.187335 175 35145ft 464kts
09-Jul-19 11:34 42.138699 -121.159909 175 35149ft 464kts
09-Jul-19 11:35 42.011069 -121.132359 175 35150ft 464kts
09-Jul-19 11:36 41.883140 -121.104863 175 35149ft 466kts
09-Jul-19 11:37 41.755395 -121.077503 175 35151ft 466kts
09-Jul-19 11:38 41.627573 -121.050263 175 35151ft 467kts
09-Jul-19 11:39 41.499439 -121.023029 175 35152ft 467kts
09-Jul-19 11:40 41.371219 -120.995904 175 35153ft 467kts
09-Jul-19 11:41 41.242897 -120.968869 174 35160ft 468kts
09-Jul-19 11:42 41.112270 -120.941495 174 35170ft 491kts
09-Jul-19 11:43 40.978798 -120.916443 180 35147ft 467kts
09-Jul-19 11:44 40.851123 -120.906254 180 35167ft 465kts
09-Jul-19 11:45 40.721600 -120.895905 180 35166ft 466kts
09-Jul-19 11:46 40.592763 -120.885647 180 35165ft 466kts
09-Jul-19 11:47 40.463778 -120.875437 180 35165ft 467kts
09-Jul-19 11:48 40.334487 -120.865211 180 35164ft 467kts
09-Jul-19 11:49 40.205088 -120.855029 180 35187ft 467kts
09-Jul-19 11:50 40.075585 -120.844894 179 35201ft 467kts
09-Jul-19 11:52 39.945689 -120.834787 179 35201ft 469kts
09-Jul-19 11:53 39.815851 -120.824645 179 35202ft 469kts
09-Jul-19 11:54 39.685705 -120.814563 179 35202ft 470kts
09-Jul-19 11:55 39.555517 -120.804510 179 35244ft 469kts
09-Jul-19 11:56 39.425176 -120.794491 179 35266ft 469kts
09-Jul-19 11:57 39.295062 -120.784538 179 35266ft 470kts
09-Jul-19 11:58 39.165518 -120.774638 179 35265ft 470kts
09-Jul-19 11:59 39.035102 -120.764719 179 35265ft 471kts
09-Jul-19 12:00 38.904705 -120.754848 178 35185ft 471kts
09-Jul-19 12:01 38.774132 -120.745000 178 35157ft 472kts
09-Jul-19 12:02 38.643832 -120.735197 178 35156ft 472kts
09-Jul-19 12:03 38.512985 -120.725377 178 35156ft 473kts
09-Jul-19 12:04 38.381955 -120.715592 178 35155ft 473kts
09-Jul-19 12:05 38.250775 -120.705834 178 35133ft 473kts
09-Jul-19 12:06 38.120094 -120.696143 178 35128ft 473kts
09-Jul-19 12:07 37.988459 -120.686439 177 35128ft 474kts
09-Jul-19 12:08 37.856432 -120.676691 177 35116ft 475kts
09-Jul-19 12:09 37.724420 -120.667027 177 35083ft 476kts
09-Jul-19 12:10 37.592798 -120.657408 177 35083ft 476kts
09-Jul-19 12:11 37.459315 -120.647723 177 35094ft 498kts
09-Jul-19 12:12 37.322631 -120.634860 169 35065ft 482kts
09-Jul-19 12:13 37.194224 -120.594017 166 35083ft 478kts
09-Jul-19 12:13 37.086736 -120.559195 166 35082ft 478kts
09-Jul-19 12:15 36.937112 -120.510834 166 35083ft 478kts
09-Jul-19 12:16 36.808468 -120.469419 165 35082ft 479kts
09-Jul-19 12:16 36.700851 -120.434880 165 35082ft 479kts
09-Jul-19 12:17 36.571988 -120.393661 165 35082ft 478kts
09-Jul-19 12:19 36.422303 -120.345950 165 35082ft 478kts
09-Jul-19 12:19 36.315094 -120.311882 165 35082ft 478kts
09-Jul-19 12:20 36.186061 -120.271020 165 35082ft 477kts
09-Jul-19 12:21 36.057491 -120.230449 165 35082ft 478kts
09-Jul-19 12:22 35.929633 -120.190229 165 35088ft 478kts
09-Jul-19 12:23 35.799516 -120.154469 176 35087ft 480kts
09-Jul-19 12:24 35.664743 -120.158390 169 35088ft 494kts
09-Jul-19 12:25 35.549763 -120.081556 132 35083ft 476kts
09-Jul-19 12:26 35.460195 -119.964095 147 35090ft 477kts
09-Jul-19 12:27 35.354667 -119.878553 145 35109ft 426kts
09-Jul-19 12:28 35.260040 -119.797249 142 35141ft 422kts
09-Jul-19 12:29 35.166261 -119.709573 143 33190ft 429kts
09-Jul-19 12:30 35.071748 -119.621522 143 31143ft 425kts
09-Jul-19 12:31 34.978610 -119.535009 143 29339ft 423kts
09-Jul-19 12:32 34.883980 -119.448305 144 27567ft 429kts
09-Jul-19 12:33 34.788416 -119.362766 144 25622ft 421kts
09-Jul-19 12:34 34.696552 -119.281712 146 23794ft 411kts
09-Jul-19 12:35 34.604587 -119.201906 146 21972ft 402kts
09-Jul-19 12:36 34.514981 -119.123505 145 20191ft 392kts
09-Jul-19 12:37 34.427760 -119.046617 145 18453ft 383kts
09-Jul-19 12:38 34.342472 -118.972710 145 16765ft 374kts
09-Jul-19 12:39 34.260030 -118.897953 144 15106ft 365kts
09-Jul-19 12:40 34.179838 -118.824351 143 13358ft 360kts
09-Jul-19 12:41 34.103650 -118.751200 149 12272ft 330kts
09-Jul-19 12:42 34.034488 -118.691012 144 12200ft 291kts
09-Jul-19 12:43 33.991031 -118.604734 90 9554ft 356kts
09-Jul-19 12:44 34.010921 -118.490389 92 7762ft 347kts
09-Jul-19 12:45 34.024221 -118.376879 78 6217ft 338kts
09-Jul-19 12:46 34.036140 -118.275270 82 5864ft 257kts
09-Jul-19 12:47 34.044021 -118.203278 82 5451ft 198kts
09-Jul-19 12:48 34.018654 -118.159258 169 5008ft 195kts
09-Jul-19 12:49 33.968191 -118.166682 223 5030ft 173kts
09-Jul-19 12:50 33.961919 -118.219718 270 4746ft 158kts
09-Jul-19 12:51 33.963562 -118.274506 269 3089ft 167kts
09-Jul-19 12:52 33.959668 -118.327364 262 1401ft 150kts
09-Jul-19 12:53 33.954374 -118.379215 263 586ft 156kts
09-Jul-19 12:54 33.950307 -118.419475 263 129ft 47kts
09-Jul-19 12:55 33.948616 -118.426647 227 122ft 10kts
09-Jul-19 12:56 33.948562 -118.426716 227 122ft 0kts
09-Jul-19 12:57 33.946829 -118.427725 175 119ft 15kts
09-Jul-19 12:58 33.946791 -118.422775 83 126ft 15kts
09-Jul-19 12:59 33.947389 -118.416946 83 129ft 19kts
09-Jul-19 13:00 33.945924 -118.412668 173 129ft 19kts
09-Jul-19 13:01 33.939692 -118.411730 173 133ft 24kts
09-Jul-19 13:02 33.938854 -118.407342 83 135ft 18kts
09-Jul-19 13:03 33.939574 -118.404073 340 130ft 3kts
09-Jul-19 13:04 33.939717 -118.404114 352 131ft 1kts

Navigation Log

Ident Type
Flight plan parsing failed, navigation log unavailable